sensor_id;sensor_type;location;lat;lon;timestamp;temperature;humidity
17252;DHT22;8742;51.716;8.790;2023-04-24T00:01:57;11.80;99.90
17252;DHT22;8742;51.716;8.790;2023-04-24T00:04:24;11.70;99.90
17252;DHT22;8742;51.716;8.790;2023-04-24T00:06:52;11.70;99.90
17252;DHT22;8742;51.716;8.790;2023-04-24T00:09:22;11.70;99.90
17252;DHT22;8742;51.716;8.790;2023-04-24T00:11:49;11.70;99.90
17252;DHT22;8742;51.716;8.790;2023-04-24T00:14:17;11.70;99.90
17252;DHT22;8742;51.716;8.790;2023-04-24T00:16:44;11.60;99.90
17252;DHT22;8742;51.716;8.790;2023-04-24T00:19:11;11.60;99.90
17252;DHT22;8742;51.716;8.790;2023-04-24T00:21:38;11.60;99.90
17252;DHT22;8742;51.716;8.790;2023-04-24T00:24:05;11.50;99.90
17252;DHT22;8742;51.716;8.790;2023-04-24T00:26:34;11.50;99.90
17252;DHT22;8742;51.716;8.790;2023-04-24T00:29:01;11.40;99.90
17252;DHT22;8742;51.716;8.790;2023-04-24T00:31:29;11.40;99.90
17252;DHT22;8742;51.716;8.790;2023-04-24T00:33:56;11.30;99.90
17252;DHT22;8742;51.716;8.790;2023-04-24T00:36:23;11.30;99.90
17252;DHT22;8742;51.716;8.790;2023-04-24T00:38:50;11.30;99.90
17252;DHT22;8742;51.716;8.790;2023-04-24T00:41:17;11.30;99.90
17252;DHT22;8742;51.716;8.790;2023-04-24T00:43:44;11.30;99.90
17252;DHT22;8742;51.716;8.790;2023-04-24T00:46:11;11.30;99.90
17252;DHT22;8742;51.716;8.790;2023-04-24T00:48:40;11.20;99.90
17252;DHT22;8742;51.716;8.790;2023-04-24T00:51:08;11.20;99.90
17252;DHT22;8742;51.716;8.790;2023-04-24T00:53:35;11.10;99.90
17252;DHT22;8742;51.716;8.790;2023-04-24T00:56:02;11.10;99.90
17252;DHT22;8742;51.716;8.790;2023-04-24T00:58:29;11.10;99.90
17252;DHT22;8742;51.716;8.790;2023-04-24T01:00:57;11.10;99.90
17252;DHT22;8742;51.716;8.790;2023-04-24T01:03:26;11.10;99.90
17252;DHT22;8742;51.716;8.790;2023-04-24T01:05:57;11.10;99.90
17252;DHT22;8742;51.716;8.790;2023-04-24T01:08:24;11.10;99.90
17252;DHT22;8742;51.716;8.790;2023-04-24T01:10:52;11.10;99.90
17252;DHT22;8742;51.716;8.790;2023-04-24T01:13:19;11.10;99.90
17252;DHT22;8742;51.716;8.790;2023-04-24T01:15:47;11.10;99.90
17252;DHT22;8742;51.716;8.790;2023-04-24T01:18:14;11.20;99.90
17252;DHT22;8742;51.716;8.790;2023-04-24T01:20:42;11.20;99.90
17252;DHT22;8742;51.716;8.790;2023-04-24T01:23:11;11.20;99.90
17252;DHT22;8742;51.716;8.790;2023-04-24T01:25:37;11.30;99.90
17252;DHT22;8742;51.716;8.790;2023-04-24T01:28:04;11.30;99.90
17252;DHT22;8742;51.716;8.790;2023-04-24T01:30:32;11.40;99.90
17252;DHT22;8742;51.716;8.790;2023-04-24T01:32:59;11.40;99.90
17252;DHT22;8742;51.716;8.790;2023-04-24T01:35:26;11.40;99.90
17252;DHT22;8742;51.716;8.790;2023-04-24T01:37:53;11.40;99.90
17252;DHT22;8742;51.716;8.790;2023-04-24T01:40:21;11.50;99.90
17252;DHT22;8742;51.716;8.790;2023-04-24T01:42:48;11.50;99.90
17252;DHT22;8742;51.716;8.790;2023-04-24T01:45:15;11.40;99.90
17252;DHT22;8742;51.716;8.790;2023-04-24T01:47:42;11.40;99.90
17252;DHT22;8742;51.716;8.790;2023-04-24T01:50:09;11.50;99.90
17252;DHT22;8742;51.716;8.790;2023-04-24T01:52:36;11.50;99.90
17252;DHT22;8742;51.716;8.790;2023-04-24T01:55:04;11.50;99.90
17252;DHT22;8742;51.716;8.790;2023-04-24T01:57:34;11.50;99.90
17252;DHT22;8742;51.716;8.790;2023-04-24T02:00:01;11.40;99.90
17252;DHT22;8742;51.716;8.790;2023-04-24T02:02:30;11.50;99.90
17252;DHT22;8742;51.716;8.790;2023-04-24T02:04:56;11.50;99.90
17252;DHT22;8742;51.716;8.790;2023-04-24T02:07:23;11.50;99.90
17252;DHT22;8742;51.716;8.790;2023-04-24T02:09:50;11.50;99.90
17252;DHT22;8742;51.716;8.790;2023-04-24T02:12:17;11.50;99.90
17252;DHT22;8742;51.716;8.790;2023-04-24T02:14:45;11.60;99.90
17252;DHT22;8742;51.716;8.790;2023-04-24T02:17:12;11.60;99.90
17252;DHT22;8742;51.716;8.790;2023-04-24T02:19:39;11.60;99.90
17252;DHT22;8742;51.716;8.790;2023-04-24T02:22:06;11.60;99.90
17252;DHT22;8742;51.716;8.790;2023-04-24T02:24:33;11.60;99.90
17252;DHT22;8742;51.716;8.790;2023-04-24T02:27:00;11.60;99.90
17252;DHT22;8742;51.716;8.790;2023-04-24T02:29:28;11.60;99.90
17252;DHT22;8742;51.716;8.790;2023-04-24T02:31:56;11.50;99.90
17252;DHT22;8742;51.716;8.790;2023-04-24T02:34:23;11.50;99.90
17252;DHT22;8742;51.716;8.790;2023-04-24T02:36:50;11.50;99.90
17252;DHT22;8742;51.716;8.790;2023-04-24T02:39:19;11.40;99.90
17252;DHT22;8742;51.716;8.790;2023-04-24T02:41:46;11.40;99.90
17252;DHT22;8742;51.716;8.790;2023-04-24T02:44:12;11.30;99.90
17252;DHT22;8742;51.716;8.790;2023-04-24T02:46:39;11.30;99.90
17252;DHT22;8742;51.716;8.790;2023-04-24T02:49:08;11.20;99.90
17252;DHT22;8742;51.716;8.790;2023-04-24T02:51:37;11.20;99.90
17252;DHT22;8742;51.716;8.790;2023-04-24T02:54:06;11.20;99.90
17252;DHT22;8742;51.716;8.790;2023-04-24T02:56:33;11.20;99.90
17252;DHT22;8742;51.716;8.790;2023-04-24T02:59:01;11.30;99.90
17252;DHT22;8742;51.716;8.790;2023-04-24T03:01:28;11.30;99.90
17252;DHT22;8742;51.716;8.790;2023-04-24T03:03:55;11.20;99.90
17252;DHT22;8742;51.716;8.790;2023-04-24T03:06:23;11.20;99.90
17252;DHT22;8742;51.716;8.790;2023-04-24T03:08:50;11.20;99.90
17252;DHT22;8742;51.716;8.790;2023-04-24T03:11:16;11.20;99.90
17252;DHT22;8742;51.716;8.790;2023-04-24T03:13:43;11.30;99.90
17252;DHT22;8742;51.716;8.790;2023-04-24T03:16:10;11.30;99.90
17252;DHT22;8742;51.716;8.790;2023-04-24T03:18:37;11.40;99.90
17252;DHT22;8742;51.716;8.790;2023-04-24T03:21:04;11.40;99.90
17252;DHT22;8742;51.716;8.790;2023-04-24T03:23:32;11.50;99.90
17252;DHT22;8742;51.716;8.790;2023-04-24T03:25:59;11.50;99.90
17252;DHT22;8742;51.716;8.790;2023-04-24T03:28:26;11.60;99.90
17252;DHT22;8742;51.716;8.790;2023-04-24T03:30:52;11.60;99.90
17252;DHT22;8742;51.716;8.790;2023-04-24T03:33:19;11.60;99.90
17252;DHT22;8742;51.716;8.790;2023-04-24T03:35:46;11.60;99.90
17252;DHT22;8742;51.716;8.790;2023-04-24T03:38:13;11.60;99.90
17252;DHT22;8742;51.716;8.790;2023-04-24T03:40:41;11.60;99.90
17252;DHT22;8742;51.716;8.790;2023-04-24T03:43:08;11.60;99.90
17252;DHT22;8742;51.716;8.790;2023-04-24T03:45:35;11.60;99.90
17252;DHT22;8742;51.716;8.790;2023-04-24T03:48:02;11.60;99.90
17252;DHT22;8742;51.716;8.790;2023-04-24T03:50:28;11.60;99.90
17252;DHT22;8742;51.716;8.790;2023-04-24T03:52:55;11.60;99.90
17252;DHT22;8742;51.716;8.790;2023-04-24T03:55:22;11.60;99.90
17252;DHT22;8742;51.716;8.790;2023-04-24T03:57:50;11.60;99.90
17252;DHT22;8742;51.716;8.790;2023-04-24T04:00:17;11.60;99.90
17252;DHT22;8742;51.716;8.790;2023-04-24T04:02:44;11.60;99.90
17252;DHT22;8742;51.716;8.790;2023-04-24T04:05:11;11.60;99.90
17252;DHT22;8742;51.716;8.790;2023-04-24T04:07:38;11.60;99.90
17252;DHT22;8742;51.716;8.790;2023-04-24T04:10:05;11.60;99.90
17252;DHT22;8742;51.716;8.790;2023-04-24T04:12:33;11.50;99.90
17252;DHT22;8742;51.716;8.790;2023-04-24T04:15:01;11.50;99.90
17252;DHT22;8742;51.716;8.790;2023-04-24T04:17:29;11.50;99.90
17252;DHT22;8742;51.716;8.790;2023-04-24T04:19:55;11.50;99.90
17252;DHT22;8742;51.716;8.790;2023-04-24T04:22:22;11.40;99.90
17252;DHT22;8742;51.716;8.790;2023-04-24T04:24:49;11.40;99.90
17252;DHT22;8742;51.716;8.790;2023-04-24T04:27:16;11.10;99.90
17252;DHT22;8742;51.716;8.790;2023-04-24T04:29:44;10.90;99.90
17252;DHT22;8742;51.716;8.790;2023-04-24T04:32:12;10.70;99.90
17252;DHT22;8742;51.716;8.790;2023-04-24T04:34:39;10.60;99.90
17252;DHT22;8742;51.716;8.790;2023-04-24T04:37:06;10.40;99.90
17252;DHT22;8742;51.716;8.790;2023-04-24T04:39:32;10.30;99.90
17252;DHT22;8742;51.716;8.790;2023-04-24T04:41:59;10.10;99.90
17252;DHT22;8742;51.716;8.790;2023-04-24T04:44:26;10.10;99.90
17252;DHT22;8742;51.716;8.790;2023-04-24T04:46:54;10.00;99.90
17252;DHT22;8742;51.716;8.790;2023-04-24T04:49:23;10.00;99.90
17252;DHT22;8742;51.716;8.790;2023-04-24T04:51:50;9.90;99.90
17252;DHT22;8742;51.716;8.790;2023-04-24T04:54:17;9.90;99.90
17252;DHT22;8742;51.716;8.790;2023-04-24T04:56:44;9.90;99.90
17252;DHT22;8742;51.716;8.790;2023-04-24T04:59:10;9.90;99.90
17252;DHT22;8742;51.716;8.790;2023-04-24T05:01:37;9.90;99.90
17252;DHT22;8742;51.716;8.790;2023-04-24T05:04:04;9.90;99.90
17252;DHT22;8742;51.716;8.790;2023-04-24T05:06:33;10.00;99.90
17252;DHT22;8742;51.716;8.790;2023-04-24T05:09:00;10.00;99.90
17252;DHT22;8742;51.716;8.790;2023-04-24T05:11:26;10.00;99.90
17252;DHT22;8742;51.716;8.790;2023-04-24T05:13:53;10.00;99.90
17252;DHT22;8742;51.716;8.790;2023-04-24T05:16:20;10.10;99.90
17252;DHT22;8742;51.716;8.790;2023-04-24T05:18:47;10.20;99.90
17252;DHT22;8742;51.716;8.790;2023-04-24T05:21:14;10.20;99.90
17252;DHT22;8742;51.716;8.790;2023-04-24T05:23:42;10.30;99.90
17252;DHT22;8742;51.716;8.790;2023-04-24T05:26:09;10.20;99.90
17252;DHT22;8742;51.716;8.790;2023-04-24T05:28:36;10.20;99.90
17252;DHT22;8742;51.716;8.790;2023-04-24T05:31:03;10.20;99.90
17252;DHT22;8742;51.716;8.790;2023-04-24T05:33:30;10.20;99.90
17252;DHT22;8742;51.716;8.790;2023-04-24T05:35:56;10.20;99.90
17252;DHT22;8742;51.716;8.790;2023-04-24T05:38:23;10.20;99.90
17252;DHT22;8742;51.716;8.790;2023-04-24T05:40:51;10.20;99.90
17252;DHT22;8742;51.716;8.790;2023-04-24T05:43:18;10.30;99.90
17252;DHT22;8742;51.716;8.790;2023-04-24T05:45:45;10.30;99.90
17252;DHT22;8742;51.716;8.790;2023-04-24T05:48:12;10.30;99.90
17252;DHT22;8742;51.716;8.790;2023-04-24T05:50:39;10.30;99.90
17252;DHT22;8742;51.716;8.790;2023-04-24T05:53:05;10.30;99.90
17252;DHT22;8742;51.716;8.790;2023-04-24T05:55:33;10.30;99.90
17252;DHT22;8742;51.716;8.790;2023-04-24T05:58:02;10.30;99.90
17252;DHT22;8742;51.716;8.790;2023-04-24T06:00:30;10.30;99.90
17252;DHT22;8742;51.716;8.790;2023-04-24T06:02:57;10.30;99.90
17252;DHT22;8742;51.716;8.790;2023-04-24T06:05:24;10.30;99.90
17252;DHT22;8742;51.716;8.790;2023-04-24T06:07:51;10.30;99.90
17252;DHT22;8742;51.716;8.790;2023-04-24T06:10:18;10.40;99.90
17252;DHT22;8742;51.716;8.790;2023-04-24T06:12:45;10.50;99.90
17252;DHT22;8742;51.716;8.790;2023-04-24T06:15:13;10.50;99.90
17252;DHT22;8742;51.716;8.790;2023-04-24T06:17:40;10.50;99.90
17252;DHT22;8742;51.716;8.790;2023-04-24T06:20:07;10.60;99.90
17252;DHT22;8742;51.716;8.790;2023-04-24T06:22:36;10.60;99.90
17252;DHT22;8742;51.716;8.790;2023-04-24T06:25:06;10.70;99.90
17252;DHT22;8742;51.716;8.790;2023-04-24T06:27:33;10.80;99.90
17252;DHT22;8742;51.716;8.790;2023-04-24T06:29:59;10.90;99.90
17252;DHT22;8742;51.716;8.790;2023-04-24T06:32:27;11.10;99.90
17252;DHT22;8742;51.716;8.790;2023-04-24T06:34:56;11.30;99.90
17252;DHT22;8742;51.716;8.790;2023-04-24T06:37:23;11.50;99.90
17252;DHT22;8742;51.716;8.790;2023-04-24T06:39:50;11.60;99.90
17252;DHT22;8742;51.716;8.790;2023-04-24T06:42:17;11.70;99.90
17252;DHT22;8742;51.716;8.790;2023-04-24T06:44:46;11.70;99.90
17252;DHT22;8742;51.716;8.790;2023-04-24T06:47:13;11.70;99.90
17252;DHT22;8742;51.716;8.790;2023-04-24T06:49:41;11.60;99.90
17252;DHT22;8742;51.716;8.790;2023-04-24T06:52:08;11.60;99.90
17252;DHT22;8742;51.716;8.790;2023-04-24T06:54:35;11.60;99.90
17252;DHT22;8742;51.716;8.790;2023-04-24T06:57:02;11.50;99.90
17252;DHT22;8742;51.716;8.790;2023-04-24T06:59:29;11.50;99.90
17252;DHT22;8742;51.716;8.790;2023-04-24T07:01:57;11.50;99.90
17252;DHT22;8742;51.716;8.790;2023-04-24T07:04:24;11.50;99.90
17252;DHT22;8742;51.716;8.790;2023-04-24T07:06:52;11.50;99.90
17252;DHT22;8742;51.716;8.790;2023-04-24T07:09:21;11.50;99.90
17252;DHT22;8742;51.716;8.790;2023-04-24T07:11:49;11.50;99.90
17252;DHT22;8742;51.716;8.790;2023-04-24T07:14:17;11.50;99.90
17252;DHT22;8742;51.716;8.790;2023-04-24T07:16:44;11.50;99.90
17252;DHT22;8742;51.716;8.790;2023-04-24T07:19:12;11.50;99.90
17252;DHT22;8742;51.716;8.790;2023-04-24T07:21:39;11.50;99.90
17252;DHT22;8742;51.716;8.790;2023-04-24T07:24:08;11.50;99.90
17252;DHT22;8742;51.716;8.790;2023-04-24T07:26:37;11.50;99.90
17252;DHT22;8742;51.716;8.790;2023-04-24T07:29:04;11.60;99.90
17252;DHT22;8742;51.716;8.790;2023-04-24T07:31:30;11.70;99.90
17252;DHT22;8742;51.716;8.790;2023-04-24T07:33:57;11.80;99.90
17252;DHT22;8742;51.716;8.790;2023-04-24T07:36:24;12.00;99.90
17252;DHT22;8742;51.716;8.790;2023-04-24T07:38:51;12.10;99.90
17252;DHT22;8742;51.716;8.790;2023-04-24T07:41:20;12.10;99.90
17252;DHT22;8742;51.716;8.790;2023-04-24T07:43:47;12.20;99.90
17252;DHT22;8742;51.716;8.790;2023-04-24T07:46:14;12.30;99.90
17252;DHT22;8742;51.716;8.790;2023-04-24T07:48:41;12.40;99.90
17252;DHT22;8742;51.716;8.790;2023-04-24T07:51:07;12.40;99.90
17252;DHT22;8742;51.716;8.790;2023-04-24T07:53:35;12.40;99.90
17252;DHT22;8742;51.716;8.790;2023-04-24T07:56:02;12.50;99.90
17252;DHT22;8742;51.716;8.790;2023-04-24T07:58:30;12.60;99.90
17252;DHT22;8742;51.716;8.790;2023-04-24T08:00:57;12.70;99.90
17252;DHT22;8742;51.716;8.790;2023-04-24T08:03:24;12.80;99.90
17252;DHT22;8742;51.716;8.790;2023-04-24T08:05:51;12.80;99.90
17252;DHT22;8742;51.716;8.790;2023-04-24T08:08:20;12.60;99.90
17252;DHT22;8742;51.716;8.790;2023-04-24T08:10:47;12.50;99.90
17252;DHT22;8742;51.716;8.790;2023-04-24T08:13:14;12.50;99.90
17252;DHT22;8742;51.716;8.790;2023-04-24T08:15:42;12.30;99.90
17252;DHT22;8742;51.716;8.790;2023-04-24T08:18:09;12.30;99.90
17252;DHT22;8742;51.716;8.790;2023-04-24T08:20:37;12.30;99.90
17252;DHT22;8742;51.716;8.790;2023-04-24T08:23:04;12.30;99.90
17252;DHT22;8742;51.716;8.790;2023-04-24T08:25:31;12.30;99.90
17252;DHT22;8742;51.716;8.790;2023-04-24T08:28:01;12.30;99.90
17252;DHT22;8742;51.716;8.790;2023-04-24T08:30:28;12.30;99.90
17252;DHT22;8742;51.716;8.790;2023-04-24T08:32:57;12.30;99.90
17252;DHT22;8742;51.716;8.790;2023-04-24T08:35:23;12.30;99.90
17252;DHT22;8742;51.716;8.790;2023-04-24T08:37:52;12.30;99.90
17252;DHT22;8742;51.716;8.790;2023-04-24T08:40:24;12.30;99.90
17252;DHT22;8742;51.716;8.790;2023-04-24T08:42:54;12.30;99.90
17252;DHT22;8742;51.716;8.790;2023-04-24T08:45:21;12.20;99.90
17252;DHT22;8742;51.716;8.790;2023-04-24T08:47:50;12.30;99.90
17252;DHT22;8742;51.716;8.790;2023-04-24T08:50:20;12.30;99.90
17252;DHT22;8742;51.716;8.790;2023-04-24T08:52:49;12.30;99.90
17252;DHT22;8742;51.716;8.790;2023-04-24T08:55:16;12.40;99.90
17252;DHT22;8742;51.716;8.790;2023-04-24T08:57:44;12.60;99.90
17252;DHT22;8742;51.716;8.790;2023-04-24T09:00:12;13.00;99.90
17252;DHT22;8742;51.716;8.790;2023-04-24T09:02:42;14.00;99.90
17252;DHT22;8742;51.716;8.790;2023-04-24T09:05:10;15.00;99.90
17252;DHT22;8742;51.716;8.790;2023-04-24T09:07:39;15.70;99.90
17252;DHT22;8742;51.716;8.790;2023-04-24T09:10:08;16.30;99.90
17252;DHT22;8742;51.716;8.790;2023-04-24T09:12:35;16.20;99.90
17252;DHT22;8742;51.716;8.790;2023-04-24T09:15:03;15.70;99.90
17252;DHT22;8742;51.716;8.790;2023-04-24T09:17:30;15.10;99.90
17252;DHT22;8742;51.716;8.790;2023-04-24T09:19:57;14.50;99.90
17252;DHT22;8742;51.716;8.790;2023-04-24T09:22:24;14.00;99.90
17252;DHT22;8742;51.716;8.790;2023-04-24T09:25:02;13.60;99.90
17252;DHT22;8742;51.716;8.790;2023-04-24T09:27:29;13.30;99.90
17252;DHT22;8742;51.716;8.790;2023-04-24T09:29:58;13.10;99.90
17252;DHT22;8742;51.716;8.790;2023-04-24T09:32:25;13.00;99.90
17252;DHT22;8742;51.716;8.790;2023-04-24T09:35:09;12.90;99.90
17252;DHT22;8742;51.716;8.790;2023-04-24T09:37:37;12.90;99.90
17252;DHT22;8742;51.716;8.790;2023-04-24T09:40:13;12.90;99.90
17252;DHT22;8742;51.716;8.790;2023-04-24T09:42:42;12.90;99.90
17252;DHT22;8742;51.716;8.790;2023-04-24T09:45:10;12.90;99.90
17252;DHT22;8742;51.716;8.790;2023-04-24T09:47:37;12.80;99.90
17252;DHT22;8742;51.716;8.790;2023-04-24T09:50:13;12.70;99.90
17252;DHT22;8742;51.716;8.790;2023-04-24T09:52:41;12.50;99.90
17252;DHT22;8742;51.716;8.790;2023-04-24T09:55:17;12.50;99.90
17252;DHT22;8742;51.716;8.790;2023-04-24T09:57:48;12.40;99.90
17252;DHT22;8742;51.716;8.790;2023-04-24T10:00:27;12.40;99.90
17252;DHT22;8742;51.716;8.790;2023-04-24T10:02:55;12.30;99.90
17252;DHT22;8742;51.716;8.790;2023-04-24T10:05:28;12.30;99.90
17252;DHT22;8742;51.716;8.790;2023-04-24T10:07:57;12.30;99.90
17252;DHT22;8742;51.716;8.790;2023-04-24T10:10:25;12.30;99.90
17252;DHT22;8742;51.716;8.790;2023-04-24T10:12:52;12.40;99.90
17252;DHT22;8742;51.716;8.790;2023-04-24T10:15:20;12.60;99.90
17252;DHT22;8742;51.716;8.790;2023-04-24T10:17:48;12.70;99.90
17252;DHT22;8742;51.716;8.790;2023-04-24T10:20:18;12.70;99.90
17252;DHT22;8742;51.716;8.790;2023-04-24T10:22:48;12.60;99.90
17252;DHT22;8742;51.716;8.790;2023-04-24T10:25:16;12.50;99.90
17252;DHT22;8742;51.716;8.790;2023-04-24T10:27:45;12.30;99.90
17252;DHT22;8742;51.716;8.790;2023-04-24T10:30:13;12.20;99.90
17252;DHT22;8742;51.716;8.790;2023-04-24T10:32:40;11.90;99.90
17252;DHT22;8742;51.716;8.790;2023-04-24T10:35:08;11.80;99.90
17252;DHT22;8742;51.716;8.790;2023-04-24T10:37:37;11.80;99.90
17252;DHT22;8742;51.716;8.790;2023-04-24T10:40:06;12.00;99.90
17252;DHT22;8742;51.716;8.790;2023-04-24T10:42:34;12.30;99.90
17252;DHT22;8742;51.716;8.790;2023-04-24T10:45:06;12.50;99.90
17252;DHT22;8742;51.716;8.790;2023-04-24T10:47:40;12.50;99.90
17252;DHT22;8742;51.716;8.790;2023-04-24T10:50:09;12.40;99.90
17252;DHT22;8742;51.716;8.790;2023-04-24T10:52:46;12.40;99.90
17252;DHT22;8742;51.716;8.790;2023-04-24T10:55:13;12.20;99.90
17252;DHT22;8742;51.716;8.790;2023-04-24T10:58:01;12.10;99.90
17252;DHT22;8742;51.716;8.790;2023-04-24T11:00:30;11.80;99.90
17252;DHT22;8742;51.716;8.790;2023-04-24T11:09:42;11.00;99.90
17252;DHT22;8742;51.716;8.790;2023-04-24T11:12:11;10.80;99.90
17252;DHT22;8742;51.716;8.790;2023-04-24T11:14:59;10.70;99.90
17252;DHT22;8742;51.716;8.790;2023-04-24T11:17:32;10.70;99.90
17252;DHT22;8742;51.716;8.790;2023-04-24T11:20:02;10.60;99.90
17252;DHT22;8742;51.716;8.790;2023-04-24T11:22:33;10.60;99.90
17252;DHT22;8742;51.716;8.790;2023-04-24T11:25:01;10.50;99.90
17252;DHT22;8742;51.716;8.790;2023-04-24T11:27:30;10.50;99.90
17252;DHT22;8742;51.716;8.790;2023-04-24T11:30:02;10.60;99.90
17252;DHT22;8742;51.716;8.790;2023-04-24T11:32:35;10.50;99.90
17252;DHT22;8742;51.716;8.790;2023-04-24T11:35:04;10.60;99.90
17252;DHT22;8742;51.716;8.790;2023-04-24T11:37:36;10.50;99.90
17252;DHT22;8742;51.716;8.790;2023-04-24T11:40:04;10.50;99.90
17252;DHT22;8742;51.716;8.790;2023-04-24T11:42:34;10.40;99.90
17252;DHT22;8742;51.716;8.790;2023-04-24T11:45:01;10.40;99.90
17252;DHT22;8742;51.716;8.790;2023-04-24T11:47:31;10.40;99.90
17252;DHT22;8742;51.716;8.790;2023-04-24T11:49:59;10.30;99.90
17252;DHT22;8742;51.716;8.790;2023-04-24T11:52:27;10.30;99.90
17252;DHT22;8742;51.716;8.790;2023-04-24T11:54:53;10.30;99.90
17252;DHT22;8742;51.716;8.790;2023-04-24T11:57:21;10.20;99.90
17252;DHT22;8742;51.716;8.790;2023-04-24T11:59:48;10.10;99.90
17252;DHT22;8742;51.716;8.790;2023-04-24T12:02:22;10.10;99.90
17252;DHT22;8742;51.716;8.790;2023-04-24T12:04:51;10.10;99.90
17252;DHT22;8742;51.716;8.790;2023-04-24T12:07:18;10.10;99.90
17252;DHT22;8742;51.716;8.790;2023-04-24T12:09:46;10.00;99.90
17252;DHT22;8742;51.716;8.790;2023-04-24T12:12:14;9.90;99.90
17252;DHT22;8742;51.716;8.790;2023-04-24T12:14:43;9.80;99.90
17252;DHT22;8742;51.716;8.790;2023-04-24T12:17:10;9.70;99.90
17252;DHT22;8742;51.716;8.790;2023-04-24T12:19:37;9.60;99.90
17252;DHT22;8742;51.716;8.790;2023-04-24T12:22:06;9.40;99.90
17252;DHT22;8742;51.716;8.790;2023-04-24T12:24:33;9.40;99.90
17252;DHT22;8742;51.716;8.790;2023-04-24T12:27:00;9.30;99.90
17252;DHT22;8742;51.716;8.790;2023-04-24T12:29:28;9.30;99.90
17252;DHT22;8742;51.716;8.790;2023-04-24T12:31:54;9.30;99.90
17252;DHT22;8742;51.716;8.790;2023-04-24T12:34:23;9.30;99.90
17252;DHT22;8742;51.716;8.790;2023-04-24T12:36:51;9.30;99.90
17252;DHT22;8742;51.716;8.790;2023-04-24T12:39:19;9.30;99.90
17252;DHT22;8742;51.716;8.790;2023-04-24T12:41:55;9.30;99.90
17252;DHT22;8742;51.716;8.790;2023-04-24T12:44:29;9.30;99.90
17252;DHT22;8742;51.716;8.790;2023-04-24T12:46:57;9.30;99.90
17252;DHT22;8742;51.716;8.790;2023-04-24T12:49:24;9.30;99.90
17252;DHT22;8742;51.716;8.790;2023-04-24T12:51:51;9.30;99.90
17252;DHT22;8742;51.716;8.790;2023-04-24T12:54:19;9.30;99.90
17252;DHT22;8742;51.716;8.790;2023-04-24T12:56:46;9.20;99.90
17252;DHT22;8742;51.716;8.790;2023-04-24T12:59:13;9.20;99.90
17252;DHT22;8742;51.716;8.790;2023-04-24T13:01:40;9.20;99.90
17252;DHT22;8742;51.716;8.790;2023-04-24T13:04:07;9.20;99.90
17252;DHT22;8742;51.716;8.790;2023-04-24T13:06:34;9.20;99.90
17252;DHT22;8742;51.716;8.790;2023-04-24T13:09:01;9.10;99.90
17252;DHT22;8742;51.716;8.790;2023-04-24T13:11:30;9.10;99.90
17252;DHT22;8742;51.716;8.790;2023-04-24T13:13:57;9.20;99.90
17252;DHT22;8742;51.716;8.790;2023-04-24T13:16:23;9.20;99.90
17252;DHT22;8742;51.716;8.790;2023-04-24T13:18:50;9.20;99.90
17252;DHT22;8742;51.716;8.790;2023-04-24T13:21:17;9.20;99.90
17252;DHT22;8742;51.716;8.790;2023-04-24T13:23:44;9.30;99.90
17252;DHT22;8742;51.716;8.790;2023-04-24T13:26:11;9.30;99.90
17252;DHT22;8742;51.716;8.790;2023-04-24T13:28:39;9.30;99.90
17252;DHT22;8742;51.716;8.790;2023-04-24T13:31:06;9.30;99.90
17252;DHT22;8742;51.716;8.790;2023-04-24T13:33:32;9.20;99.90
17252;DHT22;8742;51.716;8.790;2023-04-24T13:35:59;9.20;99.90
17252;DHT22;8742;51.716;8.790;2023-04-24T13:38:26;9.20;99.90
17252;DHT22;8742;51.716;8.790;2023-04-24T13:40:53;9.20;99.90
17252;DHT22;8742;51.716;8.790;2023-04-24T13:43:20;9.20;99.90
17252;DHT22;8742;51.716;8.790;2023-04-24T13:45:48;9.10;99.90
17252;DHT22;8742;51.716;8.790;2023-04-24T13:48:15;9.10;99.90
17252;DHT22;8742;51.716;8.790;2023-04-24T13:50:42;9.20;99.90
17252;DHT22;8742;51.716;8.790;2023-04-24T13:53:09;9.20;99.90
17252;DHT22;8742;51.716;8.790;2023-04-24T13:55:36;9.20;99.90
17252;DHT22;8742;51.716;8.790;2023-04-24T13:58:04;9.30;99.90
17252;DHT22;8742;51.716;8.790;2023-04-24T14:00:32;9.20;99.90
17252;DHT22;8742;51.716;8.790;2023-04-24T14:03:00;9.30;99.90
17252;DHT22;8742;51.716;8.790;2023-04-24T14:05:27;9.20;99.90
17252;DHT22;8742;51.716;8.790;2023-04-24T14:07:53;9.30;99.90
17252;DHT22;8742;51.716;8.790;2023-04-24T14:10:20;9.30;99.90
17252;DHT22;8742;51.716;8.790;2023-04-24T14:12:47;9.30;99.90
17252;DHT22;8742;51.716;8.790;2023-04-24T14:15:14;9.30;99.90
17252;DHT22;8742;51.716;8.790;2023-04-24T14:17:42;9.20;99.90
17252;DHT22;8742;51.716;8.790;2023-04-24T14:20:11;9.20;99.90
17252;DHT22;8742;51.716;8.790;2023-04-24T14:22:38;9.10;99.90
17252;DHT22;8742;51.716;8.790;2023-04-24T14:25:06;9.10;99.90
17252;DHT22;8742;51.716;8.790;2023-04-24T14:27:33;9.00;99.90
17252;DHT22;8742;51.716;8.790;2023-04-24T14:30:00;9.00;99.90
17252;DHT22;8742;51.716;8.790;2023-04-24T14:32:27;9.00;99.90
17252;DHT22;8742;51.716;8.790;2023-04-24T14:34:53;9.10;99.90
17252;DHT22;8742;51.716;8.790;2023-04-24T14:37:22;9.00;99.90
17252;DHT22;8742;51.716;8.790;2023-04-24T14:39:48;9.00;99.90
17252;DHT22;8742;51.716;8.790;2023-04-24T14:42:15;9.00;99.90
17252;DHT22;8742;51.716;8.790;2023-04-24T14:44:43;9.00;99.90
17252;DHT22;8742;51.716;8.790;2023-04-24T14:47:10;9.00;99.90
17252;DHT22;8742;51.716;8.790;2023-04-24T14:49:36;9.00;99.90
17252;DHT22;8742;51.716;8.790;2023-04-24T14:52:04;9.10;99.90
17252;DHT22;8742;51.716;8.790;2023-04-24T14:54:32;9.20;99.90
17252;DHT22;8742;51.716;8.790;2023-04-24T14:56:59;9.30;99.90
17252;DHT22;8742;51.716;8.790;2023-04-24T14:59:27;9.50;99.90
17252;DHT22;8742;51.716;8.790;2023-04-24T15:01:54;9.60;99.90
17252;DHT22;8742;51.716;8.790;2023-04-24T15:04:23;9.60;99.90
17252;DHT22;8742;51.716;8.790;2023-04-24T15:06:50;9.60;99.90
17252;DHT22;8742;51.716;8.790;2023-04-24T15:09:19;9.50;99.90
17252;DHT22;8742;51.716;8.790;2023-04-24T15:11:47;9.60;99.90
17252;DHT22;8742;51.716;8.790;2023-04-24T15:14:14;9.60;99.90
17252;DHT22;8742;51.716;8.790;2023-04-24T15:16:41;9.60;99.90
17252;DHT22;8742;51.716;8.790;2023-04-24T15:19:08;9.60;99.90
17252;DHT22;8742;51.716;8.790;2023-04-24T15:21:35;9.60;99.90
17252;DHT22;8742;51.716;8.790;2023-04-24T15:24:03;9.50;99.90
17252;DHT22;8742;51.716;8.790;2023-04-24T15:26:30;9.50;99.90
17252;DHT22;8742;51.716;8.790;2023-04-24T15:28:59;9.40;99.90
17252;DHT22;8742;51.716;8.790;2023-04-24T15:31:25;9.40;99.90
17252;DHT22;8742;51.716;8.790;2023-04-24T15:33:52;9.40;99.90
17252;DHT22;8742;51.716;8.790;2023-04-24T15:36:19;9.40;99.90
17252;DHT22;8742;51.716;8.790;2023-04-24T15:38:47;9.40;99.90
17252;DHT22;8742;51.716;8.790;2023-04-24T15:41:13;9.40;99.90
17252;DHT22;8742;51.716;8.790;2023-04-24T15:43:40;9.40;99.90
17252;DHT22;8742;51.716;8.790;2023-04-24T15:46:09;9.40;99.90
17252;DHT22;8742;51.716;8.790;2023-04-24T15:48:36;9.50;99.90
17252;DHT22;8742;51.716;8.790;2023-04-24T15:51:06;9.50;99.90
17252;DHT22;8742;51.716;8.790;2023-04-24T15:53:33;9.40;99.90
17252;DHT22;8742;51.716;8.790;2023-04-24T15:56:00;9.40;99.90
17252;DHT22;8742;51.716;8.790;2023-04-24T15:58:28;9.30;99.90
17252;DHT22;8742;51.716;8.790;2023-04-24T16:00:55;9.20;99.90